Time;durP1;ratioP1;P1;durP2;ratioP2;P2;SDS_P1;SDS_P2;PMS_P1;PMS_P2;Temp;Humidity;BMP_temperature;BMP_pressure;BME280_temperature;BME280_humidity;BME280_pressure;Samples;Min_cycle;Max_cycle;Signal;HPM_P1;HPM_P2
2021/10/07 00:01:59;;;;;;;6.73;2.00;;;;;;;;;;5118379;28;20572;-61
2021/10/07 00:04:28;;;;;;;4.27;1.80;;;;;;;;;;5118617;28;20221;-61
2021/10/07 00:06:56;;;;;;;4.80;1.47;;;;;;;;;;5118797;28;20215;-61
2021/10/07 00:09:26;;;;;;;1.97;1.87;;;;;;;;;;5118633;28;20201;-62
2021/10/07 00:11:54;;;;;;;2.30;1.67;;;;;;;;;;5118870;28;20209;-62
2021/10/07 00:14:22;;;;;;;4.73;1.90;;;;;;;;;;5118457;28;20225;-62
2021/10/07 00:16:50;;;;;;;2.67;1.70;;;;;;;;;;5118268;28;20565;-61
2021/10/07 00:19:18;;;;;;;3.43;2.10;;;;;;;;;;5118766;28;20200;-62
2021/10/07 00:21:46;;;;;;;6.37;2.07;;;;;;;;;;5118565;28;20208;-62
2021/10/07 00:24:14;;;;;;;4.43;1.90;;;;;;;;;;5118156;28;20220;-62
2021/10/07 00:26:44;;;;;;;4.50;1.90;;;;;;;;;;5118426;28;20215;-62
2021/10/07 00:32:01;;;;;;;3.00;1.77;;;;;;;;;;5107568;28;20208;-61
2021/10/07 00:34:36;;;;;;;4.70;2.00;;;;;;;;;;5118108;28;20247;-61
2021/10/07 00:37:09;;;;;;;5.77;2.00;;;;;;;;;;5118168;28;20239;-61
2021/10/07 00:39:36;;;;;;;5.37;2.13;;;;;;;;;;5118105;28;20204;-61
2021/10/07 00:42:06;;;;;;;4.53;1.80;;;;;;;;;;5118122;28;20660;-61
2021/10/07 00:44:35;;;;;;;5.37;2.03;;;;;;;;;;5118269;28;20221;-62
2021/10/07 00:47:04;;;;;;;4.93;2.00;;;;;;;;;;5117942;28;20571;-61
2021/10/07 00:49:33;;;;;;;3.30;2.40;;;;;;;;;;5118559;28;20236;-61
2021/10/07 00:52:02;;;;;;;5.83;1.77;;;;;;;;;;5118056;28;20229;-62
2021/10/07 00:54:30;;;;;;;1.93;1.60;;;;;;;;;;5118275;28;20239;-61
2021/10/07 00:56:58;;;;;;;5.37;2.10;;;;;;;;;;5117891;28;20691;-61
2021/10/07 00:59:27;;;;;;;2.40;1.53;;;;;;;;;;5118010;28;20227;-61
2021/10/07 01:01:56;;;;;;;4.93;1.93;;;;;;;;;;5117982;28;20205;-62
2021/10/07 01:04:24;;;;;;;5.80;1.77;;;;;;;;;;5117574;28;20224;-61
2021/10/07 01:06:52;;;;;;;2.83;1.90;;;;;;;;;;5118705;28;20686;-61
2021/10/07 01:09:20;;;;;;;3.13;1.57;;;;;;;;;;5117757;28;20673;-62
2021/10/07 01:11:48;;;;;;;4.57;1.73;;;;;;;;;;5117680;28;20282;-61
2021/10/07 01:14:30;;;;;;;5.03;1.40;;;;;;;;;;5117849;28;20229;-61
2021/10/07 01:17:01;;;;;;;3.73;1.73;;;;;;;;;;5117998;28;20204;-61
2021/10/07 01:19:29;;;;;;;5.33;1.77;;;;;;;;;;5117818;28;20231;-61
2021/10/07 01:21:58;;;;;;;1.57;1.37;;;;;;;;;;5117754;28;20234;-61
2021/10/07 01:24:26;;;;;;;2.97;1.50;;;;;;;;;;5117708;28;20221;-61
2021/10/07 01:26:54;;;;;;;7.13;1.80;;;;;;;;;;5117710;28;20207;-61
2021/10/07 01:29:22;;;;;;;3.93;2.27;;;;;;;;;;5117816;28;20212;-61
2021/10/07 01:31:50;;;;;;;4.93;1.83;;;;;;;;;;5118482;28;20200;-61
2021/10/07 01:34:21;;;;;;;4.07;1.63;;;;;;;;;;5121222;28;20230;-62
2021/10/07 01:36:49;;;;;;;4.53;1.50;;;;;;;;;;5121587;28;20224;-61
2021/10/07 01:39:19;;;;;;;4.57;1.60;;;;;;;;;;5121733;28;20635;-61
2021/10/07 01:41:47;;;;;;;3.93;1.87;;;;;;;;;;5121613;28;20201;-61
2021/10/07 01:44:15;;;;;;;5.20;2.03;;;;;;;;;;5121655;28;20231;-61
2021/10/07 01:46:43;;;;;;;4.20;1.60;;;;;;;;;;5120953;28;20264;-61
2021/10/07 01:49:11;;;;;;;2.47;1.93;;;;;;;;;;5121166;28;20250;-61
2021/10/07 01:51:39;;;;;;;3.30;1.80;;;;;;;;;;5121068;28;20255;-61
2021/10/07 01:54:07;;;;;;;6.27;1.90;;;;;;;;;;5121240;28;20225;-61
2021/10/07 01:56:37;;;;;;;5.50;1.83;;;;;;;;;;5121009;28;20683;-62
2021/10/07 01:59:06;;;;;;;4.87;2.00;;;;;;;;;;5121223;28;20284;-63
2021/10/07 02:01:35;;;;;;;5.50;1.60;;;;;;;;;;5121118;28;20211;-62
2021/10/07 02:04:03;;;;;;;3.60;1.83;;;;;;;;;;5120776;28;20228;-61
2021/10/07 02:06:31;;;;;;;4.90;1.93;;;;;;;;;;5121066;27;20201;-61
2021/10/07 02:08:59;;;;;;;2.33;1.63;;;;;;;;;;5120834;28;20574;-61
2021/10/07 02:11:27;;;;;;;3.13;1.20;;;;;;;;;;5120528;28;20231;-61
2021/10/07 02:13:56;;;;;;;1.53;0.93;;;;;;;;;;5120832;28;20229;-61
2021/10/07 02:16:24;;;;;;;6.70;1.60;;;;;;;;;;5120222;28;20583;-61
2021/10/07 02:18:52;;;;;;;5.20;1.43;;;;;;;;;;5120579;28;20713;-61
2021/10/07 02:21:20;;;;;;;2.73;1.50;;;;;;;;;;5120990;28;20549;-61
2021/10/07 02:23:48;;;;;;;5.07;1.60;;;;;;;;;;5120667;28;20289;-62
2021/10/07 02:26:16;;;;;;;2.40;1.20;;;;;;;;;;5120378;28;20203;-61
2021/10/07 02:28:45;;;;;;;3.90;1.60;;;;;;;;;;5120442;28;20209;-61
2021/10/07 02:31:14;;;;;;;2.80;1.10;;;;;;;;;;5120556;28;20215;-62
2021/10/07 02:33:42;;;;;;;7.83;2.10;;;;;;;;;;5120441;28;20235;-61
2021/10/07 02:36:10;;;;;;;3.43;0.97;;;;;;;;;;5120586;28;20288;-61
2021/10/07 02:38:38;;;;;;;2.60;1.17;;;;;;;;;;5120052;28;20207;-61
2021/10/07 02:41:06;;;;;;;1.70;1.00;;;;;;;;;;5120221;28;20208;-61
2021/10/07 02:43:35;;;;;;;4.47;1.23;;;;;;;;;;5118942;28;20240;-61
2021/10/07 02:46:03;;;;;;;3.77;1.80;;;;;;;;;;5119937;28;20563;-61
2021/10/07 02:48:32;;;;;;;2.47;1.10;;;;;;;;;;5120043;28;20773;-61
2021/10/07 02:51:00;;;;;;;2.37;1.33;;;;;;;;;;5119975;28;20247;-61
2021/10/07 02:53:31;;;;;;;2.90;1.60;;;;;;;;;;5119982;28;20211;-61
2021/10/07 02:55:59;;;;;;;3.97;1.30;;;;;;;;;;5120080;28;20221;-61
2021/10/07 02:58:27;;;;;;;6.33;1.80;;;;;;;;;;5120443;28;20293;-61
2021/10/07 03:00:55;;;;;;;4.93;1.50;;;;;;;;;;5120237;28;20205;-61
2021/10/07 03:03:23;;;;;;;5.27;1.50;;;;;;;;;;5119663;28;20617;-61
2021/10/07 03:05:53;;;;;;;4.20;1.27;;;;;;;;;;5120277;27;20220;-61
2021/10/07 03:08:27;;;;;;;2.60;0.90;;;;;;;;;;5106247;28;20227;-61
2021/10/07 03:10:55;;;;;;;6.37;1.40;;;;;;;;;;5119609;28;20214;-61
2021/10/07 03:13:24;;;;;;;2.67;1.17;;;;;;;;;;5119519;28;20209;-61
2021/10/07 03:15:52;;;;;;;6.17;1.47;;;;;;;;;;5119396;28;20225;-61
2021/10/07 03:18:20;;;;;;;2.53;1.60;;;;;;;;;;5119552;28;20236;-61
2021/10/07 03:20:48;;;;;;;4.40;1.70;;;;;;;;;;5119377;28;20218;-61
2021/10/07 03:23:17;;;;;;;1.30;1.20;;;;;;;;;;5119656;28;20216;-62
2021/10/07 03:25:45;;;;;;;4.90;1.20;;;;;;;;;;5118875;28;20231;-61
2021/10/07 03:28:13;;;;;;;5.63;1.50;;;;;;;;;;5119465;28;20205;-61
2021/10/07 03:30:41;;;;;;;4.07;1.33;;;;;;;;;;5119074;28;20211;-61
2021/10/07 03:33:10;;;;;;;4.80;1.60;;;;;;;;;;5119361;28;20207;-61
2021/10/07 03:35:38;;;;;;;4.43;1.43;;;;;;;;;;5119088;28;20235;-61
2021/10/07 03:38:06;;;;;;;4.40;1.30;;;;;;;;;;5119932;28;20225;-61
2021/10/07 03:40:36;;;;;;;3.20;1.30;;;;;;;;;;5118738;28;20565;-61
2021/10/07 03:43:04;;;;;;;4.10;1.77;;;;;;;;;;5119126;28;20684;-61
2021/10/07 03:45:32;;;;;;;7.33;1.53;;;;;;;;;;5119469;28;20308;-61
2021/10/07 03:48:00;;;;;;;3.77;1.20;;;;;;;;;;5119035;28;20197;-61
2021/10/07 03:50:29;;;;;;;4.17;1.23;;;;;;;;;;5118749;28;20320;-61
2021/10/07 03:52:57;;;;;;;3.90;1.33;;;;;;;;;;5119205;28;20211;-61
2021/10/07 03:55:25;;;;;;;9.93;1.90;;;;;;;;;;5118317;28;20312;-61
2021/10/07 03:57:54;;;;;;;2.60;1.10;;;;;;;;;;5118815;27;20235;-61
2021/10/07 04:00:23;;;;;;;5.00;1.37;;;;;;;;;;5118640;28;20637;-61
2021/10/07 04:02:51;;;;;;;1.73;1.00;;;;;;;;;;5118409;28;20569;-61
2021/10/07 04:05:19;;;;;;;3.90;1.73;;;;;;;;;;5118481;28;20228;-61
2021/10/07 04:07:47;;;;;;;1.77;1.27;;;;;;;;;;5118694;28;20205;-62
2021/10/07 04:10:15;;;;;;;6.23;1.57;;;;;;;;;;5118016;28;20268;-61
2021/10/07 04:12:43;;;;;;;5.70;1.60;;;;;;;;;;5118870;27;20201;-61
2021/10/07 04:15:12;;;;;;;4.43;1.60;;;;;;;;;;5117939;28;20593;-61
2021/10/07 04:17:40;;;;;;;5.90;1.50;;;;;;;;;;5117480;28;20225;-61
2021/10/07 04:20:09;;;;;;;5.70;1.73;;;;;;;;;;5117180;28;20202;-61
2021/10/07 04:22:37;;;;;;;3.67;1.70;;;;;;;;;;5118091;27;20204;-61
2021/10/07 04:25:06;;;;;;;5.63;1.40;;;;;;;;;;5117732;28;20280;-61
2021/10/07 04:27:34;;;;;;;4.43;1.70;;;;;;;;;;5118971;27;20197;-61
2021/10/07 04:30:03;;;;;;;4.40;1.37;;;;;;;;;;5117553;28;20201;-61
2021/10/07 04:32:33;;;;;;;4.73;1.53;;;;;;;;;;5118151;27;20197;-61
2021/10/07 04:35:01;;;;;;;2.13;1.40;;;;;;;;;;5117606;28;20217;-61
2021/10/07 04:37:28;;;;;;;4.13;1.10;;;;;;;;;;5120304;28;20216;-61
2021/10/07 04:39:57;;;;;;;2.57;1.30;;;;;;;;;;5117558;28;20200;-61
2021/10/07 04:42:25;;;;;;;4.90;1.67;;;;;;;;;;5118644;28;20211;-62
2021/10/07 04:44:53;;;;;;;4.07;1.70;;;;;;;;;;5118172;28;20224;-62
2021/10/07 04:47:21;;;;;;;4.20;1.50;;;;;;;;;;5117792;28;20711;-62
2021/10/07 04:49:50;;;;;;;4.90;1.40;;;;;;;;;;5117821;28;20664;-62
2021/10/07 04:52:18;;;;;;;2.13;1.53;;;;;;;;;;5118153;28;20246;-62
2021/10/07 04:54:46;;;;;;;5.87;1.87;;;;;;;;;;5117711;28;20225;-62
2021/10/07 04:57:14;;;;;;;6.03;1.23;;;;;;;;;;5117976;28;20216;-61
2021/10/07 04:59:42;;;;;;;3.73;1.40;;;;;;;;;;5117977;28;20211;-62
2021/10/07 05:02:11;;;;;;;4.10;1.40;;;;;;;;;;5117690;28;20237;-62
2021/10/07 05:04:39;;;;;;;3.67;1.17;;;;;;;;;;5117905;28;20252;-62
2021/10/07 05:07:09;;;;;;;4.53;1.27;;;;;;;;;;5118797;28;20196;-62
2021/10/07 05:09:36;;;;;;;6.33;1.43;;;;;;;;;;5121946;28;20200;-62
2021/10/07 05:12:05;;;;;;;6.47;1.23;;;;;;;;;;5121822;28;20219;-61
2021/10/07 05:14:33;;;;;;;2.40;1.20;;;;;;;;;;5121880;28;20228;-62
2021/10/07 05:17:01;;;;;;;3.17;1.30;;;;;;;;;;5121786;28;20224;-63
2021/10/07 05:19:29;;;;;;;3.17;1.20;;;;;;;;;;5121635;28;20204;-64
2021/10/07 05:21:57;;;;;;;2.70;1.50;;;;;;;;;;5122228;28;20213;-64
2021/10/07 05:24:31;;;;;;;3.40;1.40;;;;;;;;;;5121450;28;20699;-64
2021/10/07 05:26:59;;;;;;;3.03;1.60;;;;;;;;;;5121502;28;20211;-64
2021/10/07 05:29:27;;;;;;;2.53;1.03;;;;;;;;;;5121461;27;20675;-64
2021/10/07 05:31:55;;;;;;;2.73;1.47;;;;;;;;;;5121617;28;20211;-64
2021/10/07 05:34:23;;;;;;;5.13;1.70;;;;;;;;;;5121605;28;20225;-64
2021/10/07 05:36:51;;;;;;;6.73;2.30;;;;;;;;;;5116218;28;21159;-64
2021/10/07 05:39:19;;;;;;;3.87;1.60;;;;;;;;;;5112981;28;20308;-64
2021/10/07 05:41:49;;;;;;;4.00;1.40;;;;;;;;;;5137492;27;20204;-64
2021/10/07 05:44:17;;;;;;;3.23;1.53;;;;;;;;;;5126190;27;20221;-61
2021/10/07 05:46:45;;;;;;;2.10;1.50;;;;;;;;;;5118844;28;20216;-61
2021/10/07 05:49:13;;;;;;;3.53;1.37;;;;;;;;;;5130909;27;20257;-61
2021/10/07 05:51:42;;;;;;;2.53;1.67;;;;;;;;;;5119912;28;20653;-61
2021/10/07 05:54:10;;;;;;;4.50;1.60;;;;;;;;;;5107809;28;20221;-64
2021/10/07 05:56:38;;;;;;;2.13;1.20;;;;;;;;;;5108089;28;20206;-61
2021/10/07 05:59:07;;;;;;;2.40;1.60;;;;;;;;;;5111108;28;20217;-61
2021/10/07 06:01:35;;;;;;;2.60;1.17;;;;;;;;;;5107202;28;20215;-61
2021/10/07 06:04:04;;;;;;;4.30;1.60;;;;;;;;;;5120724;28;20229;-61
2021/10/07 06:06:32;;;;;;;2.83;1.27;;;;;;;;;;5120637;28;20205;-61
2021/10/07 06:09:00;;;;;;;8.67;1.40;;;;;;;;;;5120521;28;20201;-61
2021/10/07 06:11:28;;;;;;;3.53;1.70;;;;;;;;;;5120082;28;20205;-61
2021/10/07 06:13:57;;;;;;;8.23;1.70;;;;;;;;;;5120532;28;20221;-61
2021/10/07 06:16:26;;;;;;;5.53;1.13;;;;;;;;;;5120128;28;20717;-60
2021/10/07 06:18:55;;;;;;;5.23;2.03;;;;;;;;;;5119943;28;20221;-60
2021/10/07 06:21:23;;;;;;;2.20;1.30;;;;;;;;;;5120325;28;20612;-61
2021/10/07 06:23:58;;;;;;;1.50;1.40;;;;;;;;;;5120302;28;20262;-60
2021/10/07 06:26:37;;;;;;;6.00;1.90;;;;;;;;;;5119761;28;20268;-60
2021/10/07 06:29:05;;;;;;;3.97;1.63;;;;;;;;;;5120316;28;20205;-61
2021/10/07 06:31:35;;;;;;;5.07;1.90;;;;;;;;;;5116836;28;20281;-61
2021/10/07 06:34:03;;;;;;;3.73;1.47;;;;;;;;;;5138926;27;20246;-61
2021/10/07 06:36:31;;;;;;;2.70;1.30;;;;;;;;;;5141041;27;20234;-61
2021/10/07 06:38:59;;;;;;;3.77;1.60;;;;;;;;;;5140630;27;20296;-61
2021/10/07 06:41:27;;;;;;;3.50;1.50;;;;;;;;;;5140535;27;20204;-61
2021/10/07 06:43:55;;;;;;;9.27;1.50;;;;;;;;;;5140508;27;20256;-61
2021/10/07 06:46:25;;;;;;;6.03;1.50;;;;;;;;;;5139214;27;20291;-61
2021/10/07 06:48:59;;;;;;;2.90;1.40;;;;;;;;;;5107156;28;20236;-61
2021/10/07 06:51:27;;;;;;;4.27;1.63;;;;;;;;;;5119664;28;20323;-61
2021/10/07 06:53:57;;;;;;;2.33;1.17;;;;;;;;;;5119555;28;20678;-61
2021/10/07 06:56:25;;;;;;;5.10;1.23;;;;;;;;;;5119403;28;20235;-61
2021/10/07 06:58:53;;;;;;;6.47;1.43;;;;;;;;;;5119804;28;20220;-61
2021/10/07 07:01:22;;;;;;;3.90;1.67;;;;;;;;;;5119331;28;20660;-61
2021/10/07 07:03:51;;;;;;;5.10;1.10;;;;;;;;;;5119847;27;20635;-61
2021/10/07 07:06:21;;;;;;;5.80;1.40;;;;;;;;;;5119769;28;20240;-61
2021/10/07 07:08:49;;;;;;;4.63;1.37;;;;;;;;;;5119144;27;20288;-61
2021/10/07 07:11:18;;;;;;;2.80;1.40;;;;;;;;;;5119045;28;20733;-61
2021/10/07 07:13:46;;;;;;;3.37;1.33;;;;;;;;;;5119538;28;20205;-61
2021/10/07 07:16:14;;;;;;;2.67;1.40;;;;;;;;;;5119242;28;20205;-61
2021/10/07 07:18:43;;;;;;;2.67;1.20;;;;;;;;;;5118899;28;20229;-61
2021/10/07 07:21:11;;;;;;;3.63;1.60;;;;;;;;;;5119297;28;20205;-60
2021/10/07 07:23:41;;;;;;;3.43;1.70;;;;;;;;;;5118917;28;20226;-61
2021/10/07 07:26:09;;;;;;;6.93;1.67;;;;;;;;;;5118678;27;20653;-60
2021/10/07 07:28:37;;;;;;;4.20;1.60;;;;;;;;;;5118756;28;20211;-61
2021/10/07 07:31:05;;;;;;;3.53;1.60;;;;;;;;;;5118075;28;20274;-61
2021/10/07 07:33:33;;;;;;;6.77;1.47;;;;;;;;;;5133473;27;20211;-61
2021/10/07 07:36:01;;;;;;;2.90;1.20;;;;;;;;;;5139649;27;20207;-61
2021/10/07 07:38:29;;;;;;;3.17;1.13;;;;;;;;;;5139319;27;20742;-63
2021/10/07 07:40:58;;;;;;;4.77;1.93;;;;;;;;;;5139005;27;20206;-61
2021/10/07 07:43:26;;;;;;;4.13;2.17;;;;;;;;;;5139609;27;20287;-61
2021/10/07 07:45:54;;;;;;;2.37;1.67;;;;;;;;;;5139475;27;20204;-61
2021/10/07 07:48:23;;;;;;;4.90;1.37;;;;;;;;;;5126307;27;20227;-61
2021/10/07 07:50:55;;;;;;;4.93;1.63;;;;;;;;;;5121734;27;20240;-61
2021/10/07 07:53:24;;;;;;;4.33;1.37;;;;;;;;;;5118643;28;20208;-61
2021/10/07 07:55:52;;;;;;;9.60;1.67;;;;;;;;;;5118463;28;20237;-61
2021/10/07 07:58:21;;;;;;;2.30;1.47;;;;;;;;;;5118816;28;20219;-61
2021/10/07 08:00:49;;;;;;;5.03;1.77;;;;;;;;;;5117709;27;20207;-61
2021/10/07 08:03:17;;;;;;;3.97;1.40;;;;;;;;;;5127196;27;20295;-61
2021/10/07 08:05:46;;;;;;;5.07;1.50;;;;;;;;;;5120638;27;20311;-61
2021/10/07 08:08:14;;;;;;;3.93;1.40;;;;;;;;;;5117941;28;20232;-61
2021/10/07 08:10:42;;;;;;;2.77;1.33;;;;;;;;;;5117366;28;20236;-61
2021/10/07 08:13:11;;;;;;;3.90;1.50;;;;;;;;;;5118727;27;20236;-61
2021/10/07 08:15:40;;;;;;;1.63;1.10;;;;;;;;;;5119247;27;20228;-61
2021/10/07 08:18:11;;;;;;;4.00;1.97;;;;;;;;;;5117921;28;20250;-61
2021/10/07 08:20:40;;;;;;;7.07;1.63;;;;;;;;;;5120255;27;20229;-61
2021/10/07 08:23:11;;;;;;;6.03;1.57;;;;;;;;;;5121271;28;20230;-61
2021/10/07 08:25:39;;;;;;;5.30;1.77;;;;;;;;;;5117107;28;20228;-61
2021/10/07 08:28:08;;;;;;;3.10;1.43;;;;;;;;;;5122313;27;20724;-61
2021/10/07 08:30:37;;;;;;;3.80;1.30;;;;;;;;;;5123206;27;20239;-61
2021/10/07 08:33:07;;;;;;;4.13;1.60;;;;;;;;;;5115309;28;20254;-61
2021/10/07 08:35:35;;;;;;;3.60;1.40;;;;;;;;;;5122018;27;20256;-61
2021/10/07 08:38:04;;;;;;;2.93;1.70;;;;;;;;;;5121003;27;20209;-61
2021/10/07 08:40:32;;;;;;;6.77;2.20;;;;;;;;;;5125200;27;20235;-61
2021/10/07 08:43:01;;;;;;;7.33;2.07;;;;;;;;;;5117263;28;20691;-61
2021/10/07 08:45:30;;;;;;;4.97;2.03;;;;;;;;;;5117650;28;20603;-61
2021/10/07 08:47:59;;;;;;;4.30;1.30;;;;;;;;;;5115692;28;20207;-61
2021/10/07 08:50:28;;;;;;;5.27;1.70;;;;;;;;;;5123040;28;20230;-61
2021/10/07 08:53:00;;;;;;;2.03;1.83;;;;;;;;;;5117057;28;20216;-61
2021/10/07 08:55:29;;;;;;;2.73;1.50;;;;;;;;;;5122750;27;20235;-61
2021/10/07 08:57:57;;;;;;;3.17;1.60;;;;;;;;;;5117741;28;20209;-61
2021/10/07 09:00:25;;;;;;;4.43;1.70;;;;;;;;;;5120365;27;20219;-61
2021/10/07 09:02:53;;;;;;;3.30;1.53;;;;;;;;;;5113660;28;20207;-61
2021/10/07 09:05:24;;;;;;;3.43;1.33;;;;;;;;;;5111408;28;20299;-61
2021/10/07 09:07:58;;;;;;;1.67;1.13;;;;;;;;;;5125796;28;20636;-60
2021/10/07 09:10:37;;;;;;;6.10;2.07;;;;;;;;;;5119291;28;20196;-61
2021/10/07 09:13:06;;;;;;;1.23;1.03;;;;;;;;;;5120206;28;20204;-61
2021/10/07 09:15:34;;;;;;;4.20;1.20;;;;;;;;;;5117274;28;20284;-60
2021/10/07 09:18:03;;;;;;;6.17;1.30;;;;;;;;;;5117838;28;20245;-59
2021/10/07 09:20:32;;;;;;;2.97;1.17;;;;;;;;;;5117348;28;20225;-59
2021/10/07 09:23:06;;;;;;;4.67;1.50;;;;;;;;;;5117271;28;20212;-59
2021/10/07 09:25:49;;;;;;;3.23;1.43;;;;;;;;;;5116669;28;20224;-59
2021/10/07 09:28:17;;;;;;;4.73;1.87;;;;;;;;;;5116100;28;20292;-60
2021/10/07 09:30:45;;;;;;;5.70;2.03;;;;;;;;;;5119086;28;20570;-59
2021/10/07 09:33:17;;;;;;;1.77;1.30;;;;;;;;;;5118200;28;20209;-60
2021/10/07 09:35:45;;;;;;;5.43;1.23;;;;;;;;;;5120001;28;20248;-59
2021/10/07 09:38:21;;;;;;;4.90;0.90;;;;;;;;;;5120071;27;20739;-62
2021/10/07 09:40:49;;;;;;;5.50;1.70;;;;;;;;;;5117105;28;20227;-60
2021/10/07 09:43:17;;;;;;;5.43;1.43;;;;;;;;;;5117317;28;20246;-59
2021/10/07 09:45:47;;;;;;;2.40;1.20;;;;;;;;;;5117092;28;20260;-62
2021/10/07 09:48:15;;;;;;;2.77;1.10;;;;;;;;;;5115223;28;20207;-62
2021/10/07 09:50:44;;;;;;;3.07;1.33;;;;;;;;;;5115578;28;20232;-62
2021/10/07 09:53:13;;;;;;;3.47;1.33;;;;;;;;;;5118145;27;20685;-62
2021/10/07 09:55:43;;;;;;;4.50;1.40;;;;;;;;;;5122149;27;20237;-62
2021/10/07 09:58:12;;;;;;;2.70;1.23;;;;;;;;;;5120380;27;20215;-59
2021/10/07 10:00:41;;;;;;;2.17;1.20;;;;;;;;;;5120132;28;20224;-60
2021/10/07 10:03:10;;;;;;;4.30;1.60;;;;;;;;;;5119969;28;20711;-62
2021/10/07 10:05:38;;;;;;;5.53;1.50;;;;;;;;;;5125436;27;20316;-62
2021/10/07 10:08:08;;;;;;;1.73;1.20;;;;;;;;;;5122321;27;20213;-66
2021/10/07 10:10:36;;;;;;;7.67;1.13;;;;;;;;;;5120864;27;20207;-63
2021/10/07 10:13:06;;;;;;;4.50;1.70;;;;;;;;;;5119559;27;20291;-62
2021/10/07 10:15:35;;;;;;;4.43;1.20;;;;;;;;;;5126995;27;20227;-61
2021/10/07 10:18:06;;;;;;;5.23;1.50;;;;;;;;;;5120259;27;20209;-60
2021/10/07 10:20:36;;;;;;;3.07;1.00;;;;;;;;;;5124369;27;20223;-61
2021/10/07 10:23:07;;;;;;;5.17;1.50;;;;;;;;;;5140691;27;20832;-59
2021/10/07 10:25:51;;;;;;;2.17;1.07;;;;;;;;;;5123968;27;20747;-60
2021/10/07 10:28:28;;;;;;;2.63;1.17;;;;;;;;;;5120116;28;20209;-59
2021/10/07 10:31:02;;;;;;;3.33;1.53;;;;;;;;;;5120074;28;20538;-59
2021/10/07 10:33:31;;;;;;;3.57;1.30;;;;;;;;;;5119892;28;20287;-59
2021/10/07 10:35:59;;;;;;;2.30;1.43;;;;;;;;;;5120217;28;20215;-62
2021/10/07 10:38:28;;;;;;;1.57;1.40;;;;;;;;;;5120204;28;20211;-62
2021/10/07 10:41:08;;;;;;;3.17;1.60;;;;;;;;;;5119864;28;20278;-62
2021/10/07 10:43:38;;;;;;;3.30;1.50;;;;;;;;;;5119950;28;20215;-62
2021/10/07 10:46:10;;;;;;;2.60;1.40;;;;;;;;;;5119920;28;20238;-61
2021/10/07 10:48:54;;;;;;;2.10;1.10;;;;;;;;;;5124278;27;20199;-61
2021/10/07 10:51:23;;;;;;;5.80;1.87;;;;;;;;;;5113911;28;20608;-61
2021/10/07 10:53:57;;;;;;;4.83;1.10;;;;;;;;;;5119536;28;20251;-61
2021/10/07 10:56:29;;;;;;;3.80;1.10;;;;;;;;;;5119766;28;20205;-61
2021/10/07 10:59:12;;;;;;;1.40;1.13;;;;;;;;;;5119726;28;20211;-62
2021/10/07 11:01:41;;;;;;;4.07;1.20;;;;;;;;;;5119098;27;20658;-62
2021/10/07 11:04:10;;;;;;;3.20;1.10;;;;;;;;;;5118842;27;20229;-62
2021/10/07 11:06:53;;;;;;;6.17;2.40;;;;;;;;;;5119360;28;20207;-61
2021/10/07 11:09:35;;;;;;;2.20;1.13;;;;;;;;;;5130828;27;20218;-61
2021/10/07 11:12:04;;;;;;;4.63;1.20;;;;;;;;;;5139695;27;20196;-61
2021/10/07 11:14:32;;;;;;;4.60;1.20;;;;;;;;;;5110892;27;20596;-61
2021/10/07 11:17:07;;;;;;;2.90;1.77;;;;;;;;;;5116051;27;20219;-62
2021/10/07 11:19:36;;;;;;;2.80;1.40;;;;;;;;;;5119454;28;20203;-61
2021/10/07 11:22:07;;;;;;;3.07;1.00;;;;;;;;;;5119003;28;20221;-62
2021/10/07 11:24:35;;;;;;;3.40;2.10;;;;;;;;;;5118450;28;20312;-62
2021/10/07 11:27:03;;;;;;;3.40;1.67;;;;;;;;;;5118798;28;20548;-62
2021/10/07 11:29:31;;;;;;;2.20;1.53;;;;;;;;;;5116886;28;20207;-61
2021/10/07 11:32:01;;;;;;;2.20;1.37;;;;;;;;;;5118769;28;20197;-61
2021/10/07 11:34:29;;;;;;;4.17;1.97;;;;;;;;;;5118546;28;20221;-62
2021/10/07 11:36:57;;;;;;;3.67;1.30;;;;;;;;;;5118854;28;20208;-62
2021/10/07 11:39:25;;;;;;;3.03;1.90;;;;;;;;;;5118521;28;20197;-61
2021/10/07 11:41:53;;;;;;;2.67;1.53;;;;;;;;;;5118248;27;20220;-62
2021/10/07 11:44:23;;;;;;;1.07;0.97;;;;;;;;;;5105055;28;20224;-61
2021/10/07 11:46:51;;;;;;;3.27;1.90;;;;;;;;;;5117064;28;20204;-62
2021/10/07 11:49:21;;;;;;;4.77;1.40;;;;;;;;;;5135894;27;20209;-62
2021/10/07 11:51:49;;;;;;;2.33;1.13;;;;;;;;;;5118585;28;20634;-62
2021/10/07 11:54:19;;;;;;;2.47;1.47;;;;;;;;;;5118667;28;20695;-61
2021/10/07 11:56:51;;;;;;;1.90;1.30;;;;;;;;;;5118644;28;20204;-61
2021/10/07 11:59:19;;;;;;;3.43;1.27;;;;;;;;;;5118565;28;20205;-61
2021/10/07 12:01:48;;;;;;;3.73;1.10;;;;;;;;;;5118214;28;20228;-61
2021/10/07 12:04:15;;;;;;;0.90;0.90;;;;;;;;;;5118604;27;20316;-62
2021/10/07 12:06:45;;;;;;;2.63;1.03;;;;;;;;;;5118350;28;20209;-61
2021/10/07 12:09:14;;;;;;;2.30;1.20;;;;;;;;;;5114782;27;20201;-62
2021/10/07 12:11:42;;;;;;;3.03;1.20;;;;;;;;;;5138653;27;20571;-62
2021/10/07 12:14:11;;;;;;;2.70;1.13;;;;;;;;;;5138768;27;20307;-62
2021/10/07 12:16:40;;;;;;;3.07;1.37;;;;;;;;;;5138485;27;20269;-62
2021/10/07 12:19:09;;;;;;;2.10;1.10;;;;;;;;;;5138588;27;20204;-62
2021/10/07 12:21:37;;;;;;;2.00;1.17;;;;;;;;;;5138791;27;20228;-62
2021/10/07 12:24:08;;;;;;;5.60;0.90;;;;;;;;;;5136820;27;20266;-62
2021/10/07 12:26:40;;;;;;;4.80;1.57;;;;;;;;;;5118023;28;20208;-62
2021/10/07 12:29:10;;;;;;;3.10;1.07;;;;;;;;;;5118156;28;20686;-62
2021/10/07 12:31:39;;;;;;;2.67;1.27;;;;;;;;;;5117652;28;20543;-62
2021/10/07 12:34:07;;;;;;;0.93;0.70;;;;;;;;;;5117843;28;20562;-62
2021/10/07 12:36:37;;;;;;;1.33;1.20;;;;;;;;;;5117750;28;20209;-62
2021/10/07 12:39:05;;;;;;;2.90;1.70;;;;;;;;;;5114702;28;20205;-62
2021/10/07 12:41:37;;;;;;;7.53;1.47;;;;;;;;;;5117485;28;20247;-62
2021/10/07 12:44:05;;;;;;;3.70;1.30;;;;;;;;;;5118006;28;20221;-61
2021/10/07 12:46:42;;;;;;;2.97;1.20;;;;;;;;;;5115945;28;20207;-62
2021/10/07 12:49:11;;;;;;;1.80;0.90;;;;;;;;;;5118065;28;20235;-62
2021/10/07 12:51:44;;;;;;;2.97;1.47;;;;;;;;;;5117394;28;20719;-61
2021/10/07 12:54:14;;;;;;;2.20;1.60;;;;;;;;;;5117587;28;20231;-62
2021/10/07 12:56:44;;;;;;;2.00;1.20;;;;;;;;;;5117728;28;20219;-62
2021/10/07 12:59:12;;;;;;;3.47;0.97;;;;;;;;;;5117977;28;20208;-61
2021/10/07 13:01:42;;;;;;;5.10;1.07;;;;;;;;;;5117663;28;20312;-62
2021/10/07 13:04:12;;;;;;;1.77;0.97;;;;;;;;;;5117502;28;20233;-62
2021/10/07 13:06:40;;;;;;;4.00;1.00;;;;;;;;;;5117559;28;20698;-62
2021/10/07 13:09:08;;;;;;;2.67;0.97;;;;;;;;;;5117729;28;20208;-61
2021/10/07 13:11:36;;;;;;;1.73;0.90;;;;;;;;;;5117533;28;20204;-61
2021/10/07 13:14:06;;;;;;;2.10;0.87;;;;;;;;;;5117470;28;20224;-62
2021/10/07 13:16:34;;;;;;;0.87;0.80;;;;;;;;;;5117721;28;20288;-62
2021/10/07 13:19:03;;;;;;;1.37;1.20;;;;;;;;;;5117180;28;20257;-62
2021/10/07 13:21:31;;;;;;;2.27;1.20;;;;;;;;;;5122572;28;20220;-62
2021/10/07 13:24:02;;;;;;;4.67;1.07;;;;;;;;;;5136861;27;20220;-62
2021/10/07 13:26:35;;;;;;;2.67;0.97;;;;;;;;;;5117364;28;20204;-62
2021/10/07 13:29:04;;;;;;;3.33;1.27;;;;;;;;;;5138819;27;20231;-61
2021/10/07 13:31:34;;;;;;;1.33;0.70;;;;;;;;;;5142358;27;20197;-62
2021/10/07 13:34:02;;;;;;;1.83;1.73;;;;;;;;;;5142330;27;20311;-62
2021/10/07 13:36:30;;;;;;;5.87;2.17;;;;;;;;;;5142456;27;20208;-62
2021/10/07 13:38:58;;;;;;;1.70;1.00;;;;;;;;;;5142265;27;20283;-61
2021/10/07 13:41:27;;;;;;;2.60;0.90;;;;;;;;;;5141698;27;20260;-62
2021/10/07 13:43:55;;;;;;;2.43;0.97;;;;;;;;;;5141757;27;20220;-62
2021/10/07 13:46:23;;;;;;;2.10;0.90;;;;;;;;;;5139747;27;20204;-62
2021/10/07 13:48:53;;;;;;;0.67;0.67;;;;;;;;;;5120934;28;20212;-61
2021/10/07 13:51:21;;;;;;;1.20;0.70;;;;;;;;;;5114865;28;20239;-61
2021/10/07 13:53:49;;;;;;;4.80;1.23;;;;;;;;;;5121257;28;20224;-62
2021/10/07 13:56:17;;;;;;;2.77;1.20;;;;;;;;;;5120890;28;20299;-62
2021/10/07 13:58:45;;;;;;;4.53;0.90;;;;;;;;;;5120973;28;20235;-62
2021/10/07 14:01:13;;;;;;;1.03;0.93;;;;;;;;;;5120755;28;20287;-62
2021/10/07 14:03:41;;;;;;;2.67;1.20;;;;;;;;;;5120707;28;20229;-62
2021/10/07 14:06:11;;;;;;;3.50;1.07;;;;;;;;;;5121504;28;20209;-62
2021/10/07 14:08:39;;;;;;;0.90;0.90;;;;;;;;;;5121049;27;20292;-62
2021/10/07 14:11:07;;;;;;;2.57;1.50;;;;;;;;;;5120754;28;20211;-62
2021/10/07 14:13:36;;;;;;;2.17;0.80;;;;;;;;;;5120870;28;20239;-61
2021/10/07 14:16:04;;;;;;;2.93;1.10;;;;;;;;;;5120527;27;20723;-62
2021/10/07 14:18:32;;;;;;;1.63;1.30;;;;;;;;;;5120904;28;20205;-62
2021/10/07 14:21:00;;;;;;;3.10;1.20;;;;;;;;;;5113573;28;20208;-62
2021/10/07 14:23:30;;;;;;;1.77;1.50;;;;;;;;;;5112009;28;20228;-62
2021/10/07 14:25:58;;;;;;;0.83;0.83;;;;;;;;;;5120198;28;20209;-62
2021/10/07 14:28:26;;;;;;;3.63;1.00;;;;;;;;;;5120279;28;20250;-62
2021/10/07 14:30:54;;;;;;;2.07;1.10;;;;;;;;;;5120491;28;20211;-62
2021/10/07 14:33:22;;;;;;;2.97;1.20;;;;;;;;;;5120543;28;20205;-62
2021/10/07 14:35:50;;;;;;;4.40;0.90;;;;;;;;;;5120460;28;20225;-62
2021/10/07 14:38:18;;;;;;;3.63;1.00;;;;;;;;;;5120341;28;20627;-62
2021/10/07 14:40:49;;;;;;;2.90;0.70;;;;;;;;;;5119995;28;20209;-62
2021/10/07 14:43:17;;;;;;;3.33;1.10;;;;;;;;;;5119201;28;20571;-62
2021/10/07 14:45:45;;;;;;;1.37;0.87;;;;;;;;;;5121060;27;20221;-62
2021/10/07 14:48:13;;;;;;;1.80;0.90;;;;;;;;;;5116911;28;20201;-63
2021/10/07 14:50:41;;;;;;;3.67;0.93;;;;;;;;;;5119331;27;20235;-62
2021/10/07 14:53:10;;;;;;;1.13;1.00;;;;;;;;;;5118842;28;20200;-63
2021/10/07 14:55:39;;;;;;;1.37;1.00;;;;;;;;;;5120962;27;20242;-62
2021/10/07 14:58:09;;;;;;;0.70;0.70;;;;;;;;;;5118979;28;20680;-62